WetterOnline ( https://www.wetteronline.de )

Wetter aktuell Utarp

Aktuelles Wetter: Norderney (16m)

6-stündlich | Neueste Meldungen
Ortszeit Temperatur Wetter
Mo, 20.05. 20:00 16.8° C bedeckt
Mo, 20.05. 14:00 17.5° C wolkenlos
Mo, 20.05. 8:00 15.4° C bewölkt
Mo, 20.05. 2:00 14.5° C wolkenlos
So, 19.05. 20:00 16.2° C leichter Regen
So, 19.05. 14:00 16.3° C wolkenlos
So, 19.05. 8:00 15.2° C wolkig
So, 19.05. 2:00 15.4° C wolkenlos
Ortszeit Temperatur Wetter
Mo, 20.05. 23:00 15.8° C leicht bewölkt
Mo, 20.05. 22:50 15.8° C leicht bewölkt
Mo, 20.05. 22:40 15.9° C wolkenlos
Mo, 20.05. 22:30 16.5° C leicht bewölkt
Mo, 20.05. 22:20 16.5° C leicht bewölkt
Mo, 20.05. 22:10 16.9° C leicht bewölkt
Mo, 20.05. 22:00 17.2° C wolkig
Mo, 20.05. 21:30 17.2° C bewölkt
Mo, 20.05. 21:00 16.9° C bedeckt
Mo, 20.05. 20:30 16.7° C bedeckt
Mo, 20.05. 20:00 16.8° C bedeckt
Ortszeit Relative Feuchte Sichtweite
Mo, 20.05. 20:00 76% 25 km
Mo, 20.05. 14:00 77% 23 km
Mo, 20.05. 8:00 86% 20 km
Mo, 20.05. 2:00 88% 14 km
So, 19.05. 20:00 77% 21 km
So, 19.05. 14:00 76% 25 km
So, 19.05. 8:00 78% 35 km
So, 19.05. 2:00 77% 35 km
Ortszeit Relative Feuchte Sichtweite
Mo, 20.05. 23:00 85% 35 km
Mo, 20.05. 22:50 85% -
Mo, 20.05. 22:40 86% -
Mo, 20.05. 22:30 83% 27 km
Mo, 20.05. 22:20 83% -
Mo, 20.05. 22:10 79% -
Mo, 20.05. 22:00 79% 30 km
Mo, 20.05. 21:30 79% 26 km
Mo, 20.05. 21:00 79% 30 km
Mo, 20.05. 20:30 78% 30 km
Mo, 20.05. 20:00 76% 25 km
Ortszeit Niederschlagsmenge Niederschlagsart
Mo, 20.05. 20:00 0.0 l/m2 in 12 Std. -
Mo, 20.05. 14:00 0.0 l/m2 in 6 Std. -
Mo, 20.05. 8:00 0.4 l/m2 in 12 Std. -
Mo, 20.05. 2:00 0.4 l/m2 in 6 Std. Regen
So, 19.05. 20:00 0.1 l/m2 in 12 Std. Regen
So, 19.05. 14:00 0.0 l/m2 in 6 Std. -
So, 19.05. 8:00 0.0 l/m2 in 12 Std. -
So, 19.05. 2:00 0.0 l/m2 in 6 Std. -
Ortszeit Niederschlagsmenge Niederschlagsart
Mo, 20.05. 23:00 0.0 l/m2 in 1 Std. -
Mo, 20.05. 22:50 keine Meldung -
Mo, 20.05. 22:40 keine Meldung -
Mo, 20.05. 22:30 0.0 l/m2 in 30 Min -
Mo, 20.05. 22:20 keine Meldung -
Mo, 20.05. 22:10 keine Meldung -
Mo, 20.05. 22:00 0.0 l/m2 in 1 Std. -
Mo, 20.05. 21:30 0.0 l/m2 in 30 Min -
Mo, 20.05. 21:00 0.0 l/m2 in 1 Std. -
Mo, 20.05. 20:30 0.0 l/m2 in 30 Min -
Mo, 20.05. 20:00 0.0 l/m2 in 1 Std. -
Ortszeit Stärke Spitze Richtung
km/h Bft. km/h Grad Sektor
Mo, 20.05. 20:00 20 4 33 50° NO
Mo, 20.05. 14:00 26 4 31 30° NO
Mo, 20.05. 8:00 14 3 32 40° NO
Mo, 20.05. 2:00 29 5 40 10° N
So, 19.05. 20:00 28 4 37 10° N
So, 19.05. 14:00 22 4 28 10° N
So, 19.05. 8:00 22 4 29 50° NO
So, 19.05. 2:00 18 3 25 40° NO
Ortszeit Stärke Spitze Richtung
km/h Bft. km/h Grad Sektor
Mo, 20.05. 23:00 13 3 19 70° O
Mo, 20.05. 22:50 13 3 - 70° O
Mo, 20.05. 22:40 11 2 - 70° O
Mo, 20.05. 22:30 14 3 18 70° O
Mo, 20.05. 22:20 14 3 - 70° O
Mo, 20.05. 22:10 13 3 - 80° O
Mo, 20.05. 22:00 11 2 22 80° O
Mo, 20.05. 21:30 11 2 19 80° O
Mo, 20.05. 21:00 13 3 24 70° O
Mo, 20.05. 20:30 15 3 24 60° NO
Mo, 20.05. 20:00 20 4 30 50° NO
Ortszeit Untergrenze Bedeckung Gattung
total tief tief mittel hoch
Mo, 20.05. 20:00 3300 m 8/8 8/8 - - -
Mo, 20.05. 14:00 - 0/8 0/8 - - -
Mo, 20.05. 8:00 1800 m 8/8 6/8 - - -
Mo, 20.05. 2:00 - 0/8 0/8 - - -
So, 19.05. 20:00 1800 m 7/8 7/8 - - -
So, 19.05. 14:00 - 0/8 0/8 - - -
So, 19.05. 8:00 3300 m 6/8 6/8 - - -
So, 19.05. 2:00 - 0/8 0/8 - - -
Ortszeit Bedeckungsgrad in Achtel und Wolkenuntergrenze
Mo, 20.05. 23:00 4(9000m)
Mo, 20.05. 22:50 4(9000m)
Mo, 20.05. 22:40 keine Wolken
Mo, 20.05. 22:30 2(3300m)
Mo, 20.05. 22:20 2(3300m)
Mo, 20.05. 22:10 4
Mo, 20.05. 22:00 1(2700m) 8(3300m)
Mo, 20.05. 21:30 7(3000m)
Mo, 20.05. 21:00 8(3000m)
Mo, 20.05. 20:30 8(3300m)
Mo, 20.05. 20:00 8(3300m)
Ortszeit Luftdruck NN (hPa) Tendenz (hPa in 3 Std.)
Mo, 20.05. 20:00 1012 + 0,3
Mo, 20.05. 14:00 1013 + 0,2
Mo, 20.05. 8:00 1012 + 0,5
Mo, 20.05. 2:00 1011 - 0,2
So, 19.05. 20:00 1011 + 0,5
So, 19.05. 14:00 1012 - 0,3
So, 19.05. 8:00 1011 + 0,7
So, 19.05. 2:00 1011 - 0,4
Ortszeit Luftdruck NN (hPa) Tendenz (hPa in 3 Std.)
Mo, 20.05. 23:00 1012 0,0
Mo, 20.05. 22:50 1012 keine Meldung
Mo, 20.05. 22:40 1012 keine Meldung
Mo, 20.05. 22:30 1012 + 0,1
Mo, 20.05. 22:20 1012 keine Meldung
Mo, 20.05. 22:10 1012 keine Meldung
Mo, 20.05. 22:00 1012 + 0,2
Mo, 20.05. 21:30 1012 + 0,1
Mo, 20.05. 21:00 1012 + 0,4
Mo, 20.05. 20:30 1012 + 0,5
Mo, 20.05. 20:00 1012 + 0,3
Ortszeit Schneehöhe (cm)
Mo, 20.05. 20:00 0
Mo, 20.05. 14:00 0
Mo, 20.05. 8:00 0
Mo, 20.05. 2:00 0
So, 19.05. 20:00 0
So, 19.05. 14:00 0
So, 19.05. 8:00 0
So, 19.05. 2:00 0
Ortszeit Schneehöhe (cm)
Mo, 20.05. 23:00 0
Mo, 20.05. 22:50 0
Mo, 20.05. 22:40 -
Mo, 20.05. 22:30 0
Mo, 20.05. 22:20 0
Mo, 20.05. 22:10 -
Mo, 20.05. 22:00 0
Mo, 20.05. 21:30 0
Mo, 20.05. 21:00 0
Mo, 20.05. 20:30 0
Mo, 20.05. 20:00 0
Link zu dieser Seite / Seite empfehlen

Das Wetter in ...